Terminal Aerodrome Forecast
Issued by NWS Wilmington, OH

Current Version | Previous Version | Graphics & Text | Print | Product List | Glossary On
Versions: 1 2 3 4 5 6 7 8 9 10 11 12 13 14 15 16 17 18 19
000
FTUS41 KILN 250544
TAFDAY
TAF
KDAY 250544Z 2506/2606 22008KT P6SM VCTS SCT040CB BKN070
     FM251200 23008KT P6SM SCT040 BKN250
     FM251600 23010G18KT P6SM SCT040
     FM260000 29007KT P6SM SCT050 BKN250
     FM260300 32006KT P6SM SCT050 BKN250=

USA.gov is the U.S. government's official web portal to all federal, state and local government web resources and services.